createdAt,value
2023-05-02T00:02:26.716Z,5.30
2023-05-02T00:04:53.935Z,5.30
2023-05-02T00:07:21.616Z,5.30
2023-05-02T00:09:48.773Z,5.30
2023-05-02T00:12:16.022Z,5.30
2023-05-02T00:14:43.183Z,5.30
2023-05-02T00:17:18.647Z,5.30
2023-05-02T00:19:46.626Z,5.20
2023-05-02T00:22:13.822Z,5.20
2023-05-02T00:24:41.000Z,5.20
2023-05-02T00:27:08.184Z,5.10
2023-05-02T00:29:35.634Z,5.20
2023-05-02T00:32:02.708Z,5.20
2023-05-02T00:34:31.403Z,5.20
2023-05-02T00:36:58.740Z,5.20
2023-05-02T00:39:26.080Z,5.10
2023-05-02T00:41:59.836Z,5.00
2023-05-02T00:44:27.284Z,5.00
2023-05-02T00:46:58.753Z,5.00
2023-05-02T00:49:26.018Z,5.00
2023-05-02T00:51:54.528Z,5.00
2023-05-02T00:54:21.780Z,5.10
2023-05-02T00:56:48.883Z,5.10
2023-05-02T00:59:17.999Z,5.10
2023-05-02T01:01:47.964Z,5.20
2023-05-02T01:04:37.063Z,5.20
2023-05-02T01:07:54.502Z,5.20
2023-05-02T01:10:59.369Z,5.20
2023-05-02T01:13:33.998Z,5.10
2023-05-02T01:16:03.565Z,5.10
2023-05-02T01:18:34.868Z,5.10
2023-05-02T01:21:07.509Z,5.10
2023-05-02T01:23:57.349Z,5.10
2023-05-02T01:26:44.253Z,5.10
2023-05-02T01:29:13.844Z,5.10
2023-05-02T01:31:48.349Z,5.00
2023-05-02T01:34:18.670Z,5.00
2023-05-02T01:36:48.914Z,5.10
2023-05-02T01:39:21.706Z,5.10
2023-05-02T01:41:56.231Z,5.20
2023-05-02T01:44:24.824Z,5.20
2023-05-02T01:46:55.211Z,5.10
2023-05-02T01:49:24.540Z,5.20
2023-05-02T01:51:53.014Z,5.30
2023-05-02T01:54:23.518Z,5.40
2023-05-02T01:56:52.318Z,5.40
2023-05-02T01:59:23.482Z,5.50
2023-05-02T02:01:52.580Z,5.50
2023-05-02T02:04:21.067Z,5.50
2023-05-02T02:06:52.777Z,5.60
2023-05-02T02:09:20.930Z,5.50
2023-05-02T02:11:53.720Z,5.50
2023-05-02T02:14:25.212Z,5.50
2023-05-02T02:16:57.811Z,5.50
2023-05-02T02:19:25.275Z,5.50
2023-05-02T02:21:54.445Z,5.50
2023-05-02T02:24:22.914Z,5.50
2023-05-02T02:26:51.175Z,5.50
2023-05-02T02:29:18.419Z,5.50
2023-05-02T02:31:46.741Z,5.60
2023-05-02T02:34:15.596Z,5.60
2023-05-02T02:36:53.602Z,5.60
2023-05-02T02:39:34.087Z,5.60
2023-05-02T02:42:24.446Z,5.60
2023-05-02T02:45:11.708Z,5.60
2023-05-02T02:47:49.572Z,5.60
2023-05-02T02:50:19.578Z,5.60
2023-05-02T02:52:59.229Z,5.60
2023-05-02T02:56:03.156Z,5.60
2023-05-02T02:59:05.537Z,5.60
2023-05-02T03:01:34.520Z,5.60
2023-05-02T03:04:08.146Z,5.70
2023-05-02T03:06:37.787Z,5.70
2023-05-02T03:09:06.025Z,5.70
2023-05-02T03:11:33.309Z,5.70
2023-05-02T03:14:00.556Z,5.60
2023-05-02T03:16:35.423Z,5.60
2023-05-02T03:19:06.090Z,5.60
2023-05-02T03:21:33.684Z,5.60
2023-05-02T03:24:07.434Z,5.60
2023-05-02T03:26:34.638Z,5.60
2023-05-02T03:29:03.096Z,5.60
2023-05-02T03:31:35.889Z,5.50
2023-05-02T03:34:04.107Z,5.50
2023-05-02T03:36:31.704Z,5.50
2023-05-02T03:38:58.876Z,5.60
2023-05-02T03:41:26.085Z,5.60
2023-05-02T03:44:00.597Z,5.60
2023-05-02T03:46:28.690Z,5.60
2023-05-02T03:48:58.294Z,5.70
2023-05-02T03:51:26.830Z,5.70
2023-05-02T03:53:56.630Z,5.60
2023-05-02T03:56:24.354Z,5.60
2023-05-02T03:59:02.020Z,5.60
2023-05-02T04:01:29.254Z,5.60
2023-05-02T04:03:58.191Z,5.50
2023-05-02T04:06:27.706Z,5.50
2023-05-02T04:08:59.784Z,5.50
2023-05-02T04:11:33.134Z,5.50
2023-05-02T04:14:01.253Z,5.50
2023-05-02T04:16:29.033Z,5.50
2023-05-02T04:18:56.850Z,5.50
2023-05-02T04:21:25.272Z,5.50
2023-05-02T04:23:52.986Z,5.50
2023-05-02T04:26:20.417Z,5.50
2023-05-02T04:28:54.089Z,5.50
2023-05-02T04:31:21.287Z,5.50
2023-05-02T04:33:51.367Z,5.50
2023-05-02T04:36:22.699Z,5.50
2023-05-02T04:38:50.450Z,5.60
2023-05-02T04:41:18.418Z,5.60
2023-05-02T04:43:52.131Z,5.60
2023-05-02T04:46:19.603Z,5.60
2023-05-02T04:48:47.006Z,5.60
2023-05-02T04:51:16.771Z,5.70
2023-05-02T04:53:46.660Z,5.70
2023-05-02T04:56:14.635Z,5.70
2023-05-02T04:58:42.642Z,5.70
2023-05-02T05:01:11.215Z,5.70
2023-05-02T05:03:38.577Z,5.70
2023-05-02T05:06:07.497Z,5.70
2023-05-02T05:08:35.054Z,5.70
2023-05-02T05:11:05.264Z,5.80
2023-05-02T05:13:33.166Z,5.80
2023-05-02T05:16:00.478Z,5.80
2023-05-02T05:18:31.047Z,5.80
2023-05-02T05:20:58.453Z,5.80
2023-05-02T05:23:25.657Z,5.80
2023-05-02T05:25:52.843Z,5.80
2023-05-02T05:28:19.972Z,5.90
2023-05-02T05:30:47.771Z,5.90
2023-05-02T05:33:18.881Z,6.00
2023-05-02T05:35:46.150Z,6.00
2023-05-02T05:38:13.187Z,6.10
2023-05-02T05:40:43.320Z,6.10
2023-05-02T05:43:10.646Z,6.20
2023-05-02T05:45:39.417Z,6.20
2023-05-02T05:48:07.426Z,6.20
2023-05-02T05:50:40.706Z,6.30
2023-05-02T05:53:08.113Z,6.30
2023-05-02T05:55:39.096Z,6.30
2023-05-02T05:58:08.408Z,6.40
2023-05-02T06:00:39.939Z,6.40
2023-05-02T06:03:09.607Z,6.50
2023-05-02T06:05:37.909Z,6.50
2023-05-02T06:08:05.167Z,6.50
2023-05-02T06:10:32.843Z,6.50
2023-05-02T06:13:00.076Z,6.50
2023-05-02T06:15:35.290Z,6.60
2023-05-02T06:18:04.577Z,6.60
2023-05-02T06:20:31.732Z,6.60
2023-05-02T06:22:59.508Z,6.60
2023-05-02T06:25:26.811Z,6.70
2023-05-02T06:27:53.952Z,6.60
2023-05-02T06:30:21.025Z,6.70
2023-05-02T06:32:48.416Z,6.70
2023-05-02T06:35:16.187Z,6.70
2023-05-02T06:37:43.693Z,6.70
2023-05-02T06:40:11.237Z,6.70
2023-05-02T06:42:38.382Z,6.70
2023-05-02T06:45:05.935Z,6.70
2023-05-02T06:47:33.575Z,6.70
2023-05-02T06:50:00.910Z,6.60
2023-05-02T06:52:28.340Z,6.60
2023-05-02T06:54:55.523Z,6.60
2023-05-02T06:57:22.729Z,6.60
2023-05-02T06:59:49.846Z,6.60
2023-05-02T07:02:17.054Z,6.70
2023-05-02T07:04:44.299Z,6.70
2023-05-02T07:07:11.511Z,6.70
2023-05-02T07:09:38.637Z,6.60
2023-05-02T07:12:07.070Z,6.70
2023-05-02T07:14:34.327Z,6.70
2023-05-02T07:17:01.693Z,6.80
2023-05-02T07:19:28.900Z,6.80
2023-05-02T07:21:56.146Z,6.90
2023-05-02T07:24:23.425Z,6.90
2023-05-02T07:26:50.621Z,6.90
2023-05-02T07:29:17.666Z,6.90
2023-05-02T07:31:44.870Z,6.90
2023-05-02T07:34:12.209Z,6.90
2023-05-02T07:36:39.491Z,6.90
2023-05-02T07:39:06.640Z,7.00
2023-05-02T07:41:33.934Z,7.00
2023-05-02T07:44:01.007Z,7.10
2023-05-02T07:46:28.201Z,7.10
2023-05-02T07:48:55.950Z,7.20
2023-05-02T07:51:23.091Z,7.20
2023-05-02T07:53:54.581Z,7.20
2023-05-02T07:56:22.085Z,7.20
2023-05-02T07:58:50.168Z,7.30
2023-05-02T08:01:17.817Z,7.30
2023-05-02T08:03:47.198Z,7.40
2023-05-02T08:06:14.630Z,7.50
2023-05-02T08:08:41.932Z,7.50
2023-05-02T08:11:09.149Z,7.60
2023-05-02T08:13:36.354Z,7.70
2023-05-02T08:16:03.632Z,7.70
2023-05-02T08:18:30.878Z,7.70
2023-05-02T08:21:00.564Z,7.80
2023-05-02T08:23:27.698Z,7.70
2023-05-02T08:25:54.906Z,7.80
2023-05-02T08:28:22.155Z,7.80
2023-05-02T08:30:49.342Z,7.90
2023-05-02T08:33:16.624Z,7.90
2023-05-02T08:35:43.821Z,8.00
2023-05-02T08:38:11.508Z,8.00
2023-05-02T08:40:42.675Z,8.00
2023-05-02T08:43:12.027Z,8.10
2023-05-02T08:45:44.394Z,8.20
2023-05-02T08:48:13.969Z,8.20
2023-05-02T08:50:43.601Z,8.20
2023-05-02T08:53:11.937Z,8.30
2023-05-02T08:55:40.973Z,8.40
2023-05-02T08:58:09.586Z,8.50
2023-05-02T09:00:42.985Z,8.50
2023-05-02T09:03:23.747Z,8.50
2023-05-02T09:06:04.945Z,8.50
2023-05-02T09:08:32.225Z,8.50
2023-05-02T09:10:59.639Z,8.60
2023-05-02T09:13:56.346Z,8.60
2023-05-02T09:16:25.991Z,8.60
2023-05-02T09:18:55.433Z,8.60
2023-05-02T09:21:27.199Z,8.50
2023-05-02T09:23:57.049Z,8.60
2023-05-02T09:26:34.104Z,8.60
2023-05-02T09:29:03.615Z,8.70
2023-05-02T09:31:55.073Z,8.80
2023-05-02T09:34:24.087Z,9.00
2023-05-02T09:36:54.433Z,9.10
2023-05-02T09:39:29.570Z,9.30
2023-05-02T09:41:57.350Z,9.40
2023-05-02T09:44:26.330Z,9.50
2023-05-02T09:46:55.681Z,9.50
2023-05-02T09:49:42.607Z,9.60
2023-05-02T09:52:14.697Z,9.70
2023-05-02T09:54:42.106Z,9.70
2023-05-02T09:57:11.066Z,9.80
2023-05-02T09:59:40.220Z,9.90
2023-05-02T10:02:09.851Z,9.90
2023-05-02T10:04:37.918Z,9.90
2023-05-02T10:07:06.778Z,9.90
2023-05-02T10:09:37.285Z,10.00
2023-05-02T10:12:05.346Z,10.00
2023-05-02T10:14:39.618Z,10.00
2023-05-02T10:17:14.485Z,10.00
2023-05-02T10:19:52.738Z,10.10
2023-05-02T10:22:20.818Z,10.20
2023-05-02T10:24:50.754Z,10.20
2023-05-02T10:27:18.267Z,10.20
2023-05-02T10:29:47.313Z,10.30
2023-05-02T10:32:18.436Z,10.30
2023-05-02T10:34:55.174Z,10.30
2023-05-02T10:37:26.685Z,10.30
2023-05-02T10:39:53.917Z,10.30
2023-05-02T10:42:21.663Z,10.30
2023-05-02T10:44:50.610Z,10.30
2023-05-02T10:47:26.698Z,10.30
2023-05-02T10:50:00.113Z,10.30
2023-05-02T10:52:33.445Z,10.30
2023-05-02T10:55:17.192Z,10.30
2023-05-02T10:58:02.408Z,10.40
2023-05-02T11:00:34.105Z,10.40
2023-05-02T11:03:02.532Z,10.40
2023-05-02T11:05:30.518Z,10.40
2023-05-02T11:08:33.322Z,10.40
2023-05-02T11:11:50.733Z,10.50
2023-05-02T11:14:30.333Z,10.50
2023-05-02T11:17:09.542Z,10.40
2023-05-02T11:20:01.908Z,10.50
2023-05-02T11:22:32.352Z,10.50
2023-05-02T11:24:59.908Z,10.50
2023-05-02T11:27:33.820Z,10.50
2023-05-02T11:30:01.885Z,10.50
2023-05-02T11:32:47.959Z,10.50
2023-05-02T11:35:27.464Z,10.60
2023-05-02T11:37:55.125Z,10.60
2023-05-02T11:40:23.018Z,10.70
2023-05-02T11:42:50.583Z,10.70
2023-05-02T11:45:18.842Z,10.80
2023-05-02T11:47:49.497Z,10.70
2023-05-02T11:50:17.830Z,10.60
2023-05-02T11:52:46.451Z,10.60
2023-05-02T11:55:15.276Z,10.60
2023-05-02T11:57:43.126Z,10.60
2023-05-02T12:00:13.605Z,10.60
2023-05-02T12:02:49.392Z,10.60
2023-05-02T12:05:32.805Z,10.70
2023-05-02T12:08:02.022Z,10.70
2023-05-02T12:10:39.141Z,10.70
2023-05-02T12:13:07.903Z,10.70
2023-05-02T12:15:47.450Z,10.70
2023-05-02T12:18:15.843Z,10.70
2023-05-02T12:20:43.437Z,10.60
2023-05-02T12:23:11.384Z,10.50
2023-05-02T12:25:43.049Z,10.50
2023-05-02T12:28:10.859Z,10.50
2023-05-02T12:30:40.276Z,10.60
2023-05-02T12:33:07.981Z,10.60
2023-05-02T12:35:36.263Z,10.70
2023-05-02T12:38:10.785Z,10.70
2023-05-02T12:40:38.339Z,10.70
2023-05-02T12:43:08.256Z,10.70
2023-05-02T12:45:35.597Z,10.60
2023-05-02T12:48:29.202Z,10.50
2023-05-02T12:50:56.401Z,10.50
2023-05-02T12:53:43.928Z,10.50
2023-05-02T12:56:12.048Z,10.50
2023-05-02T12:58:47.349Z,10.60
2023-05-02T13:01:15.608Z,10.60
2023-05-02T13:03:43.851Z,10.60
2023-05-02T13:06:11.526Z,10.70
2023-05-02T13:08:38.864Z,10.70
2023-05-02T13:11:06.444Z,10.70
2023-05-02T13:13:35.767Z,10.70
2023-05-02T13:16:04.108Z,10.80
2023-05-02T13:18:31.846Z,10.80
2023-05-02T13:21:02.112Z,10.90
2023-05-02T13:23:29.889Z,10.80
2023-05-02T13:25:57.163Z,10.80
2023-05-02T13:28:24.680Z,10.80
2023-05-02T13:30:52.311Z,10.90
2023-05-02T13:33:20.062Z,11.00
2023-05-02T13:35:47.427Z,11.10
2023-05-02T13:38:14.922Z,11.20
2023-05-02T13:40:42.232Z,11.30
2023-05-02T13:43:09.686Z,11.30
2023-05-02T13:45:37.310Z,11.40
2023-05-02T13:48:05.124Z,11.40
2023-05-02T13:50:32.653Z,11.40
2023-05-02T13:53:00.164Z,11.40
2023-05-02T13:55:27.565Z,11.40
2023-05-02T13:57:55.066Z,11.50
2023-05-02T14:00:22.577Z,11.50
2023-05-02T14:02:50.418Z,11.50
2023-05-02T14:05:17.804Z,11.60
2023-05-02T14:07:45.312Z,11.70
2023-05-02T14:10:12.854Z,11.70
2023-05-02T14:12:40.318Z,11.90
2023-05-02T14:15:08.597Z,12.00
2023-05-02T14:17:36.176Z,12.10
2023-05-02T14:20:04.041Z,12.10
2023-05-02T14:22:32.427Z,12.10
2023-05-02T14:24:59.961Z,12.20
2023-05-02T14:27:27.779Z,12.20
2023-05-02T14:29:55.130Z,12.20
2023-05-02T14:32:22.912Z,12.30
2023-05-02T14:34:50.151Z,12.30
2023-05-02T14:37:17.540Z,12.40
2023-05-02T14:39:46.950Z,12.50
2023-05-02T14:42:15.340Z,12.50
2023-05-02T14:44:42.848Z,12.50
2023-05-02T14:47:10.109Z,12.50
2023-05-02T14:49:37.339Z,12.50
2023-05-02T14:52:04.762Z,12.50
2023-05-02T14:54:31.994Z,12.50
2023-05-02T14:57:00.075Z,12.50
2023-05-02T14:59:31.565Z,12.50
2023-05-02T15:01:59.013Z,12.40
2023-05-02T15:04:27.295Z,12.30
2023-05-02T15:06:55.685Z,12.20
2023-05-02T15:09:26.472Z,12.20
2023-05-02T15:11:54.085Z,12.30
2023-05-02T15:14:22.585Z,12.40
2023-05-02T15:16:51.049Z,12.40
2023-05-02T15:19:18.425Z,12.50
2023-05-02T15:21:45.636Z,12.50
2023-05-02T15:24:12.998Z,12.60
2023-05-02T15:26:42.631Z,12.70
2023-05-02T15:29:09.996Z,12.70
2023-05-02T15:31:37.381Z,12.70
2023-05-02T15:34:04.785Z,12.80
2023-05-02T15:36:32.997Z,12.80
2023-05-02T15:39:00.373Z,12.80
2023-05-02T15:41:27.661Z,12.80
2023-05-02T15:43:55.223Z,12.90
2023-05-02T15:46:22.396Z,13.00
2023-05-02T15:48:50.744Z,13.00
2023-05-02T15:51:18.381Z,13.00
2023-05-02T15:53:49.865Z,13.00
2023-05-02T15:56:17.167Z,13.00
2023-05-02T15:58:44.532Z,13.00
2023-05-02T16:01:11.990Z,13.00
2023-05-02T16:03:39.413Z,13.00
2023-05-02T16:06:07.817Z,13.00
2023-05-02T16:08:35.578Z,12.90
2023-05-02T16:11:03.905Z,12.90
2023-05-02T16:13:35.088Z,12.90
2023-05-02T16:16:08.347Z,12.90
2023-05-02T16:18:36.207Z,12.80
2023-05-02T16:21:08.653Z,12.80
2023-05-02T16:23:37.096Z,12.70
2023-05-02T16:26:05.783Z,12.70
2023-05-02T16:28:36.715Z,12.60
2023-05-02T16:31:11.602Z,12.60
2023-05-02T16:33:44.559Z,12.70
2023-05-02T16:36:12.245Z,12.60
2023-05-02T16:38:43.685Z,12.70
2023-05-02T16:41:11.419Z,12.60
2023-05-02T16:43:39.052Z,12.60
2023-05-02T16:46:09.547Z,12.60
2023-05-02T16:48:37.203Z,12.60
2023-05-02T16:51:04.776Z,12.60
2023-05-02T16:53:32.435Z,12.50
2023-05-02T16:56:00.025Z,12.50
2023-05-02T16:58:30.572Z,12.50
2023-05-02T17:01:00.660Z,12.40
2023-05-02T17:03:29.764Z,12.40
2023-05-02T17:06:02.122Z,12.40
2023-05-02T17:08:30.772Z,12.40
2023-05-02T17:10:58.160Z,12.30
2023-05-02T17:13:25.599Z,12.30
2023-05-02T17:15:55.851Z,12.20
2023-05-02T17:18:24.395Z,12.20
2023-05-02T17:20:52.207Z,12.20
2023-05-02T17:23:20.143Z,12.20
2023-05-02T17:25:47.974Z,12.20
2023-05-02T17:28:16.277Z,12.20
2023-05-02T17:30:45.132Z,12.30
2023-05-02T17:33:12.590Z,12.40
2023-05-02T17:35:40.239Z,12.40
2023-05-02T17:38:07.380Z,12.40
2023-05-02T17:40:39.699Z,12.30
2023-05-02T17:43:10.522Z,12.20
2023-05-02T17:45:39.842Z,12.10
2023-05-02T17:48:07.398Z,12.00
2023-05-02T17:50:42.891Z,11.90
2023-05-02T17:53:10.373Z,11.90
2023-05-02T17:55:38.778Z,11.80
2023-05-02T17:58:06.485Z,11.70
2023-05-02T18:00:33.924Z,11.70
2023-05-02T18:03:01.294Z,11.70
2023-05-02T18:05:28.721Z,11.70
2023-05-02T18:07:56.159Z,11.60
2023-05-02T18:10:23.491Z,11.60
2023-05-02T18:12:51.139Z,11.70
2023-05-02T18:15:18.539Z,11.60
2023-05-02T18:17:45.919Z,11.60
2023-05-02T18:20:14.623Z,11.60
2023-05-02T18:22:42.430Z,11.50
2023-05-02T18:25:09.847Z,11.50
2023-05-02T18:27:37.437Z,11.50
2023-05-02T18:30:05.339Z,11.50
2023-05-02T18:32:36.147Z,11.50
2023-05-02T18:35:06.586Z,11.40
2023-05-02T18:37:34.843Z,11.20
2023-05-02T18:40:03.351Z,11.10
2023-05-02T18:42:31.519Z,11.00
2023-05-02T18:44:58.882Z,10.90
2023-05-02T18:47:26.276Z,10.70
2023-05-02T18:49:56.477Z,10.60
2023-05-02T18:52:25.249Z,10.50
2023-05-02T18:54:53.121Z,10.40
2023-05-02T18:57:21.862Z,10.40
2023-05-02T18:59:49.116Z,10.30
2023-05-02T19:02:16.392Z,10.20
2023-05-02T19:04:44.068Z,10.20
2023-05-02T19:07:11.676Z,10.10
2023-05-02T19:09:38.932Z,10.00
2023-05-02T19:12:06.662Z,10.00
2023-05-02T19:14:36.069Z,9.90
2023-05-02T19:17:06.616Z,9.90
2023-05-02T19:19:34.069Z,9.90
2023-05-02T19:22:01.601Z,9.90
2023-05-02T19:24:28.911Z,9.90
2023-05-02T19:26:56.134Z,9.90
2023-05-02T19:29:23.930Z,9.90
2023-05-02T19:31:51.882Z,9.80
2023-05-02T19:34:19.157Z,9.90
2023-05-02T19:36:46.417Z,9.90
2023-05-02T19:39:13.697Z,9.80
2023-05-02T19:41:42.599Z,9.80
2023-05-02T19:44:09.803Z,9.80
2023-05-02T19:46:36.974Z,9.70
2023-05-02T19:49:04.172Z,9.70
2023-05-02T19:51:34.210Z,9.70
2023-05-02T19:54:01.442Z,9.70
2023-05-02T19:56:28.983Z,9.70
2023-05-02T19:58:59.625Z,9.60
2023-05-02T20:01:29.367Z,9.60
2023-05-02T20:03:57.067Z,9.60
2023-05-02T20:06:24.613Z,9.50
2023-05-02T20:08:53.074Z,9.50
2023-05-02T20:11:20.455Z,9.50
2023-05-02T20:13:47.548Z,9.50
2023-05-02T20:16:14.961Z,9.50
2023-05-02T20:18:42.066Z,9.50
2023-05-02T20:21:09.344Z,9.60
2023-05-02T20:23:36.562Z,9.50
2023-05-02T20:26:03.747Z,9.50
2023-05-02T20:28:30.897Z,9.60
2023-05-02T20:30:58.097Z,9.50
2023-05-02T20:33:30.117Z,9.50
2023-05-02T20:36:04.672Z,9.50
2023-05-02T20:38:34.336Z,9.50
2023-05-02T20:41:03.014Z,9.40
2023-05-02T20:43:30.075Z,9.40
2023-05-02T20:45:57.646Z,9.30
2023-05-02T20:48:24.904Z,9.30
2023-05-02T20:50:55.668Z,9.30
2023-05-02T20:53:24.036Z,9.20
2023-05-02T20:55:51.497Z,9.20
2023-05-02T20:58:18.789Z,9.20
2023-05-02T21:00:52.678Z,9.10
2023-05-02T21:03:21.741Z,9.10
2023-05-02T21:05:56.574Z,9.10
2023-05-02T21:08:23.798Z,9.00
2023-05-02T21:10:54.877Z,9.00
2023-05-02T21:13:22.472Z,9.00
2023-05-02T21:15:50.324Z,8.90
2023-05-02T21:18:17.722Z,8.90
2023-05-02T21:20:46.870Z,8.90
2023-05-02T21:23:14.037Z,8.80
2023-05-02T21:25:41.144Z,8.80
2023-05-02T21:28:08.266Z,8.80
2023-05-02T21:30:35.640Z,8.80
2023-05-02T21:33:02.870Z,8.80
2023-05-02T21:35:34.122Z,8.70
2023-05-02T21:38:01.726Z,8.80
2023-05-02T21:40:31.560Z,8.80
2023-05-02T21:42:58.819Z,8.80
2023-05-02T21:45:26.774Z,8.80
2023-05-02T21:47:54.327Z,8.70
2023-05-02T21:50:21.533Z,8.80
2023-05-02T21:52:48.730Z,8.70
2023-05-02T21:55:16.343Z,8.70
2023-05-02T21:57:43.447Z,8.70
2023-05-02T22:00:13.149Z,8.70
2023-05-02T22:02:42.099Z,8.70
2023-05-02T22:05:09.511Z,8.70
2023-05-02T22:07:37.725Z,8.70
2023-05-02T22:10:05.713Z,8.60
2023-05-02T22:12:32.971Z,8.60
2023-05-02T22:15:00.334Z,8.60
2023-05-02T22:17:27.505Z,8.60
2023-05-02T22:19:55.214Z,8.60
2023-05-02T22:22:22.298Z,8.60
2023-05-02T22:24:49.384Z,8.60
2023-05-02T22:27:16.567Z,8.60
2023-05-02T22:29:43.742Z,8.60
2023-05-02T22:32:11.174Z,8.60
2023-05-02T22:34:38.332Z,8.60
2023-05-02T22:37:05.616Z,8.60
2023-05-02T22:39:32.689Z,8.60
2023-05-02T22:41:59.978Z,8.60
2023-05-02T22:44:27.342Z,8.70
2023-05-02T22:46:54.989Z,8.70
2023-05-02T22:49:21.983Z,8.70
2023-05-02T22:51:49.315Z,8.80
2023-05-02T22:54:16.954Z,8.70
2023-05-02T22:56:44.248Z,8.70
2023-05-02T22:59:11.370Z,8.80
2023-05-02T23:01:38.530Z,8.80
2023-05-02T23:04:05.809Z,8.70
2023-05-02T23:06:33.084Z,8.70
2023-05-02T23:09:00.149Z,8.70
2023-05-02T23:11:27.404Z,8.70
2023-05-02T23:13:54.584Z,8.70
2023-05-02T23:16:21.725Z,8.70
2023-05-02T23:18:49.163Z,8.70
2023-05-02T23:21:17.242Z,8.70
2023-05-02T23:23:44.383Z,8.70
2023-05-02T23:26:11.955Z,8.60
2023-05-02T23:28:39.705Z,8.70
2023-05-02T23:31:07.670Z,8.60
2023-05-02T23:33:36.219Z,8.60
2023-05-02T23:36:03.643Z,8.60
2023-05-02T23:38:31.576Z,8.60
2023-05-02T23:40:58.995Z,8.60
2023-05-02T23:43:26.619Z,8.60
2023-05-02T23:45:53.832Z,8.60
2023-05-02T23:48:21.102Z,8.50
2023-05-02T23:50:48.357Z,8.60
2023-05-02T23:53:15.436Z,8.60
2023-05-02T23:55:42.629Z,8.60
2023-05-02T23:58:10.248Z,8.60
